Airport ID:K63S
Update Time (UTC):25/09/2022 02:45
Wind Speed (Knots):0
Wind Direction (Magnetic):360
Temperature (°C):13
Dew Point (°C):7
Humidity (%):63
Altimeter (inHg):30.23
Density Altitude (Feet):
Visibility:10+
Clouds (Hundreds of feet):FEW055 FEW070 SCT090
Present Weather:
METAR:METAR K63S 250240Z AUTO 00000KT 10SM FEW055 FEW075 SCT090 13/07 A3023 RMK A01

The data displayed is for advisory purposes only and is not to be used for flight planning or operations.